Time;durP1;ratioP1;P1;durP2;ratioP2;P2;SDS_P1;SDS_P2;PMS_P1;PMS_P2;Temp;Humidity;BMP_temperature;BMP_pressure;BME280_temperature;BME280_humidity;BME280_pressure;Samples;Min_cycle;Max_cycle;Signal;HPM_P1;HPM_P2
2021/05/15 00:03:05;;;;;;;7.07;3.40;;;;;;;;;;10224292;28;20545;-65
2021/05/15 00:08:03;;;;;;;9.67;4.50;;;;;;;;;;10251006;28;20060;-66
2021/05/15 00:13:01;;;;;;;10.70;5.35;;;;;;;;;;10239251;28;20034;-66
2021/05/15 00:17:58;;;;;;;7.50;2.43;;;;;;;;;;10247991;28;20339;-65
2021/05/15 00:22:56;;;;;;;12.93;4.87;;;;;;;;;;10244363;28;20080;-65
2021/05/15 00:27:53;;;;;;;3.80;1.63;;;;;;;;;;10253561;28;20556;-65
2021/05/15 00:32:50;;;;;;;1.50;1.43;;;;;;;;;;10244593;28;20030;-66
2021/05/15 00:37:48;;;;;;;4.33;1.27;;;;;;;;;;10240434;28;20038;-68
2021/05/15 00:42:47;;;;;;;4.13;2.00;;;;;;;;;;10238197;28;20131;-67
2021/05/15 00:47:44;;;;;;;3.83;2.70;;;;;;;;;;10236672;28;20368;-69
2021/05/15 00:52:42;;;;;;;2.20;1.50;;;;;;;;;;10256271;28;20034;-66
2021/05/15 00:57:40;;;;;;;7.73;2.10;;;;;;;;;;10252248;28;20084;-68
2021/05/15 01:02:38;;;;;;;3.67;2.25;;;;;;;;;;10230922;28;20109;-66
2021/05/15 01:07:35;;;;;;;4.77;2.23;;;;;;;;;;10260431;28;20500;-66
2021/05/15 01:12:33;;;;;;;5.20;2.00;;;;;;;;;;10248908;28;20030;-67
2021/05/15 01:17:30;;;;;;;2.63;2.10;;;;;;;;;;10237980;28;20084;-68
2021/05/15 01:22:27;;;;;;;0.97;0.90;;;;;;;;;;10258746;28;20124;-68
2021/05/15 01:27:25;;;;;;;5.07;2.53;;;;;;;;;;10266825;28;20037;-65
2021/05/15 01:32:22;;;;;;;5.77;2.40;;;;;;;;;;10269954;28;20034;-66
2021/05/15 01:37:20;;;;;;;6.47;2.27;;;;;;;;;;10263898;28;20033;-65
2021/05/15 01:42:18;;;;;;;1.27;0.83;;;;;;;;;;10254263;28;20034;-66
2021/05/15 01:47:15;;;;;;;9.13;2.30;;;;;;;;;;10250099;28;20541;-66
2021/05/15 01:52:12;;;;;;;0.83;0.67;;;;;;;;;;10264581;28;20044;-65
2021/05/15 01:57:10;;;;;;;2.13;1.40;;;;;;;;;;10244374;28;20034;-65
2021/05/15 02:02:07;;;;;;;0.93;0.63;;;;;;;;;;10271907;28;20506;-66
2021/05/15 02:07:05;;;;;;;7.73;1.67;;;;;;;;;;10257242;28;20103;-67
2021/05/15 02:12:02;;;;;;;4.90;1.63;;;;;;;;;;10242885;28;20562;-66
2021/05/15 02:17:00;;;;;;;3.27;1.87;;;;;;;;;;10254674;28;20088;-67
2021/05/15 02:21:57;;;;;;;4.60;1.83;;;;;;;;;;10250895;28;20042;-65
2021/05/15 02:26:54;;;;;;;3.37;1.27;;;;;;;;;;10239871;28;20458;-65
2021/05/15 02:31:52;;;;;;;2.43;1.43;;;;;;;;;;10250650;28;20042;-66
2021/05/15 02:36:49;;;;;;;4.60;2.60;;;;;;;;;;10247440;28;20045;-67
2021/05/15 02:41:47;;;;;;;1.67;1.53;;;;;;;;;;10260907;28;20042;-67
2021/05/15 02:46:44;;;;;;;3.33;1.90;;;;;;;;;;10277380;28;20040;-65
2021/05/15 02:51:42;;;;;;;9.83;1.37;;;;;;;;;;10257396;28;20037;-65
2021/05/15 02:56:39;;;;;;;2.00;1.60;;;;;;;;;;10281925;28;20041;-65
2021/05/15 03:01:36;;;;;;;3.23;1.90;;;;;;;;;;10277494;28;20454;-65
2021/05/15 03:06:34;;;;;;;4.47;1.67;;;;;;;;;;10276707;28;20503;-66
2021/05/15 03:11:31;;;;;;;4.13;2.17;;;;;;;;;;10278830;28;20042;-65
2021/05/15 03:16:30;;;;;;;0.50;0.50;;;;;;;;;;10288631;28;20157;-66
2021/05/15 03:21:28;;;;;;;3.35;0.98;;;;;;;;;;10272418;28;20563;-67
2021/05/15 03:26:25;;;;;;;3.67;2.03;;;;;;;;;;10250137;28;20478;-66
2021/05/15 03:31:22;;;;;;;1.40;1.30;;;;;;;;;;10295602;28;20521;-66
2021/05/15 03:36:21;;;;;;;2.17;1.60;;;;;;;;;;10282907;28;20041;-67
2021/05/15 03:41:18;;;;;;;2.17;1.60;;;;;;;;;;10223549;28;20037;-65
2021/05/15 03:46:16;;;;;;;1.60;0.93;;;;;;;;;;10266904;28;20042;-67
2021/05/15 03:51:13;;;;;;;6.97;2.60;;;;;;;;;;10266582;28;20116;-67
2021/05/15 03:56:11;;;;;;;5.47;2.27;;;;;;;;;;10251538;28;20225;-67
2021/05/15 04:01:08;;;;;;;1.67;1.07;;;;;;;;;;10272860;28;20055;-67
2021/05/15 04:06:06;;;;;;;3.33;1.90;;;;;;;;;;10285737;28;20041;-67
2021/05/15 04:11:03;;;;;;;4.03;2.00;;;;;;;;;;10278857;28;20025;-67
2021/05/15 04:16:46;;;;;;;2.33;1.33;;;;;;;;;;10275159;28;20064;-67
2021/05/15 04:21:21;;;;;;;4.20;2.47;;;;;;;;;;10279298;28;20068;-67
2021/05/15 04:26:18;;;;;;;2.87;1.47;;;;;;;;;;10286353;28;20538;-67
2021/05/15 04:31:16;;;;;;;1.97;1.50;;;;;;;;;;10265691;28;20034;-67
2021/05/15 04:36:13;;;;;;;1.50;1.27;;;;;;;;;;10280743;28;20034;-67
2021/05/15 04:41:11;;;;;;;8.17;2.20;;;;;;;;;;10259515;28;20044;-66
2021/05/15 04:46:08;;;;;;;4.83;2.43;;;;;;;;;;10258138;28;20041;-66
2021/05/15 04:51:06;;;;;;;3.73;1.60;;;;;;;;;;10270680;28;20044;-66
2021/05/15 04:56:04;;;;;;;2.77;1.80;;;;;;;;;;10289901;28;20041;-66
2021/05/15 05:01:02;;;;;;;1.20;0.80;;;;;;;;;;10264168;28;20056;-67
2021/05/15 05:05:59;;;;;;;4.68;1.80;;;;;;;;;;10282391;28;20289;-67
2021/05/15 05:10:57;;;;;;;4.37;1.70;;;;;;;;;;10274236;28;20030;-66
2021/05/15 05:15:54;;;;;;;4.47;2.00;;;;;;;;;;10280584;28;20036;-66
2021/05/15 05:20:52;;;;;;;2.37;1.37;;;;;;;;;;10289068;28;20577;-68
2021/05/15 05:25:50;;;;;;;3.43;1.30;;;;;;;;;;10293900;28;20025;-66
2021/05/15 05:30:47;;;;;;;2.20;1.70;;;;;;;;;;10273743;28;20041;-67
2021/05/15 05:35:45;;;;;;;3.97;2.00;;;;;;;;;;10287221;28;20034;-66
2021/05/15 05:40:43;;;;;;;4.10;2.67;;;;;;;;;;10249193;28;20042;-67
2021/05/15 05:45:40;;;;;;;5.50;3.40;;;;;;;;;;10227795;28;20061;-65
2021/05/15 05:50:37;;;;;;;5.63;3.43;;;;;;;;;;10253822;28;20041;-68
2021/05/15 05:55:35;;;;;;;8.40;3.40;;;;;;;;;;10246232;28;20438;-65
2021/05/15 06:00:32;;;;;;;10.67;4.70;;;;;;;;;;10252587;28;20042;-67
2021/05/15 06:05:30;;;;;;;8.77;4.27;;;;;;;;;;10251000;28;20049;-68
2021/05/15 06:10:27;;;;;;;6.80;3.53;;;;;;;;;;10252742;28;21172;-66
2021/05/15 06:15:25;;;;;;;7.23;3.73;;;;;;;;;;10245917;28;20156;-65
2021/05/15 06:20:22;;;;;;;6.60;3.33;;;;;;;;;;10242484;28;20065;-67
2021/05/15 06:25:20;;;;;;;6.33;3.60;;;;;;;;;;10250957;28;20030;-66
2021/05/15 06:30:18;;;;;;;6.83;4.20;;;;;;;;;;10219943;28;20072;-66
2021/05/15 06:35:15;;;;;;;7.70;4.30;;;;;;;;;;10235267;28;20026;-65
2021/05/15 06:40:13;;;;;;;4.03;2.77;;;;;;;;;;10247120;28;20026;-65
2021/05/15 06:45:11;;;;;;;6.10;3.53;;;;;;;;;;10245054;28;20026;-65
2021/05/15 06:50:09;;;;;;;7.83;3.57;;;;;;;;;;10245931;28;20042;-66
2021/05/15 06:55:06;;;;;;;5.47;3.13;;;;;;;;;;10237745;28;20506;-64
2021/05/15 07:00:05;;;;;;;6.77;2.97;;;;;;;;;;10244365;28;20046;-67
2021/05/15 07:05:02;;;;;;;;;;;;;;;;;;10239684;28;21521;-64
2021/05/15 07:10:00;;;;;;;8.23;3.35;;;;;;;;;;10241819;28;20115;-64
2021/05/15 07:14:57;;;;;;;4.00;2.73;;;;;;;;;;10244795;28;20088;-64
2021/05/15 07:19:55;;;;;;;8.20;4.17;;;;;;;;;;10250853;28;20387;-64
2021/05/15 07:24:53;;;;;;;6.57;3.43;;;;;;;;;;10256586;28;20025;-65
2021/05/15 07:29:53;;;;;;;6.38;3.15;;;;;;;;;;10224269;28;20128;-65
2021/05/15 07:34:51;;;;;;;8.70;3.92;;;;;;;;;;10237953;28;20022;-65
2021/05/15 07:39:48;;;;;;;7.73;3.47;;;;;;;;;;10244962;28;20033;-65
2021/05/15 07:44:45;;;;;;;7.90;4.17;;;;;;;;;;10224692;28;20492;-66
2021/05/15 07:49:43;;;;;;;8.33;4.33;;;;;;;;;;10245470;28;21243;-65
2021/05/15 07:54:40;;;;;;;8.97;3.97;;;;;;;;;;10243830;28;20577;-64
2021/05/15 07:59:38;;;;;;;6.90;3.63;;;;;;;;;;10246135;28;20042;-64
2021/05/15 08:04:35;;;;;;;6.43;3.63;;;;;;;;;;10246437;28;20491;-65
2021/05/15 08:09:32;;;;;;;7.40;3.50;;;;;;;;;;10237830;28;20036;-65
2021/05/15 08:14:31;;;;;;;12.93;4.43;;;;;;;;;;10248445;28;20084;-68
2021/05/15 08:19:28;;;;;;;10.50;3.28;;;;;;;;;;10226303;28;20072;-65
2021/05/15 08:24:26;;;;;;;9.60;3.23;;;;;;;;;;10237712;28;20076;-66
2021/05/15 08:29:24;;;;;;;5.20;3.30;;;;;;;;;;10242018;28;20646;-65
2021/05/15 08:34:21;;;;;;;7.23;3.10;;;;;;;;;;10242751;28;20031;-64
2021/05/15 08:39:19;;;;;;;6.30;3.43;;;;;;;;;;10229383;28;20287;-66
2021/05/15 08:44:17;;;;;;;13.93;4.10;;;;;;;;;;10240904;28;20568;-65
2021/05/15 08:49:18;;;;;;;3.78;1.75;;;;;;;;;;10242518;28;20439;-66
2021/05/15 08:54:16;;;;;;;3.08;1.17;;;;;;;;;;10243684;28;20042;-67
2021/05/15 08:59:13;;;;;;;5.47;3.42;;;;;;;;;;10245430;28;20037;-66
2021/05/15 09:04:11;;;;;;;6.33;3.87;;;;;;;;;;10243144;28;20034;-66
2021/05/15 09:09:09;;;;;;;9.00;2.67;;;;;;;;;;10236446;28;20038;-67
2021/05/15 09:14:16;;;;;;;2.65;1.13;;;;;;;;;;10235405;28;20041;-66
2021/05/15 09:19:17;;;;;;;4.05;1.75;;;;;;;;;;10238887;28;20376;-67
2021/05/15 09:24:25;;;;;;;4.88;2.20;;;;;;;;;;10226523;28;20317;-65
2021/05/15 09:29:23;;;;;;;6.15;2.58;;;;;;;;;;10244990;28;20041;-65
2021/05/15 09:34:22;;;;;;;1.95;0.88;;;;;;;;;;10243206;28;20466;-66
2021/05/15 09:39:23;;;;;;;5.63;2.38;;;;;;;;;;10250221;28;20045;-66
2021/05/15 09:44:23;;;;;;;6.22;3.70;;;;;;;;;;10236610;28;20116;-66
2021/05/15 09:49:22;;;;;;;3.58;1.65;;;;;;;;;;10248915;28;20491;-67
2021/05/15 09:54:25;;;;;;;1.77;0.90;;;;;;;;;;10244456;28;20555;-65
2021/05/15 09:59:51;;;;;;;5.80;2.35;;;;;;;;;;10251598;28;20038;-67
2021/05/15 10:04:51;;;;;;;1.90;1.70;;;;;;;;;;10248079;28;20058;-65
2021/05/15 10:09:48;;;;;;;3.45;2.58;;;;;;;;;;10234267;28;20030;-66
2021/05/15 10:14:46;;;;;;;3.17;2.10;;;;;;;;;;10257727;28;20014;-67
2021/05/15 10:19:44;;;;;;;2.67;1.37;;;;;;;;;;10257172;28;20028;-67
2021/05/15 10:24:46;;;;;;;2.30;1.30;;;;;;;;;;10215132;28;21307;-66
2021/05/15 10:29:43;;;;;;;2.55;1.70;;;;;;;;;;10237743;28;20056;-66
2021/05/15 10:34:44;;;;;;;2.33;1.93;;;;;;;;;;10227732;28;20519;-67
2021/05/15 10:39:41;;;;;;;8.13;4.60;;;;;;;;;;10247491;28;20084;-67
2021/05/15 10:44:40;;;;;;;10.10;5.43;;;;;;;;;;10242720;28;20033;-67
2021/05/15 10:49:37;;;;;;;;;;;;;;;;;;10247820;28;20092;-67
2021/05/15 10:54:36;;;;;;;5.53;2.80;;;;;;;;;;10224259;28;19920;-67
2021/05/15 10:59:33;;;;;;;;;;;;;;;;;;10244660;28;20057;-66
2021/05/15 11:04:32;;;;;;;6.60;3.40;;;;;;;;;;10257592;28;19921;-67
2021/05/15 11:09:31;;;;;;;5.15;3.35;;;;;;;;;;10240283;28;20034;-67
2021/05/15 11:14:33;;;;;;;4.40;2.97;;;;;;;;;;10228898;28;21574;-66
2021/05/15 11:19:30;;;;;;;6.43;3.80;;;;;;;;;;10253246;28;20041;-66
2021/05/15 11:24:29;;;;;;;3.43;2.83;;;;;;;;;;10243367;28;20527;-66
2021/05/15 11:29:33;;;;;;;2.78;2.38;;;;;;;;;;10244432;28;20077;-66
2021/05/15 11:34:31;;;;;;;5.03;2.75;;;;;;;;;;10225609;28;20068;-67
2021/05/15 11:39:28;;;;;;;1.33;1.13;;;;;;;;;;10249527;28;20156;-66
2021/05/15 11:44:26;;;;;;;4.60;2.20;;;;;;;;;;10241212;28;20034;-65
2021/05/15 11:49:24;;;;;;;2.17;1.80;;;;;;;;;;10228710;28;20107;-67
2021/05/15 11:54:22;;;;;;;6.60;2.75;;;;;;;;;;10247688;28;20052;-66
2021/05/15 11:59:20;;;;;;;2.67;1.97;;;;;;;;;;10238945;28;20033;-70
2021/05/15 12:04:24;;;;;;;8.07;3.72;;;;;;;;;;10242585;28;20038;-65
2021/05/15 12:09:22;;;;;;;4.88;2.55;;;;;;;;;;10246175;28;20044;-67
2021/05/15 12:14:21;;;;;;;3.35;1.90;;;;;;;;;;10250732;28;20030;-68
2021/05/15 12:19:22;;;;;;;3.38;2.63;;;;;;;;;;10241207;28;20041;-66
2021/05/15 12:24:19;;;;;;;3.08;1.83;;;;;;;;;;10249261;28;20046;-67
2021/05/15 12:29:17;;;;;;;11.43;5.23;;;;;;;;;;10231548;28;20395;-68
2021/05/15 12:34:15;;;;;;;20.03;10.03;;;;;;;;;;10246211;28;20063;-68
2021/05/15 12:39:13;;;;;;;20.90;6.45;;;;;;;;;;10229168;28;20038;-66
2021/05/15 12:44:11;;;;;;;14.03;4.60;;;;;;;;;;10239374;28;20064;-68
2021/05/15 12:49:12;;;;;;;11.70;5.03;;;;;;;;;;10247360;28;20029;-67
2021/05/15 12:54:13;;;;;;;7.43;4.45;;;;;;;;;;10239974;28;20099;-66
2021/05/15 12:59:10;;;;;;;10.07;5.35;;;;;;;;;;10249786;28;20427;-67
2021/05/15 13:04:07;;;;;;;8.27;4.37;;;;;;;;;;10232804;28;20056;-66
2021/05/15 13:09:05;;;;;;;8.83;4.83;;;;;;;;;;10233827;28;20033;-66
2021/05/15 13:14:04;;;;;;;7.70;3.53;;;;;;;;;;10249474;28;20048;-67
2021/05/15 13:19:03;;;;;;;12.23;4.25;;;;;;;;;;10247062;28;20284;-66
2021/05/15 13:24:00;;;;;;;17.25;8.32;;;;;;;;;;10246830;28;20038;-67
2021/05/15 13:28:58;;;;;;;6.53;4.10;;;;;;;;;;10238092;28;20626;-66
2021/05/15 13:33:58;;;;;;;15.27;5.88;;;;;;;;;;10245191;28;20025;-67
2021/05/15 13:38:56;;;;;;;11.00;4.77;;;;;;;;;;10252720;28;20041;-66
2021/05/15 13:43:53;;;;;;;21.05;8.07;;;;;;;;;;10243792;28;20358;-67
2021/05/15 13:48:51;;;;;;;13.77;7.40;;;;;;;;;;10233925;28;20113;-65
2021/05/15 13:53:48;;;;;;;8.63;4.17;;;;;;;;;;10248536;28;20109;-65
2021/05/15 13:58:46;;;;;;;23.08;10.93;;;;;;;;;;10226895;28;20109;-66
2021/05/15 14:03:43;;;;;;;11.27;6.47;;;;;;;;;;10245724;28;20046;-65
2021/05/15 14:08:41;;;;;;;3.80;2.53;;;;;;;;;;10248267;28;20037;-66
2021/05/15 14:13:38;;;;;;;12.63;6.10;;;;;;;;;;10240163;28;20042;-68
2021/05/15 14:18:35;;;;;;;18.07;8.43;;;;;;;;;;10241542;28;20513;-66
2021/05/15 14:23:33;;;;;;;16.93;6.27;;;;;;;;;;10242069;28;20037;-69
2021/05/15 14:28:30;;;;;;;7.37;3.90;;;;;;;;;;10245929;28;20037;-66
2021/05/15 14:33:27;;;;;;;5.37;3.00;;;;;;;;;;10237498;28;20595;-66
2021/05/15 14:38:25;;;;;;;5.97;3.67;;;;;;;;;;10248837;28;20033;-67
2021/05/15 14:43:22;;;;;;;5.10;3.30;;;;;;;;;;10235926;28;20037;-66
2021/05/15 14:48:32;;;;;;;2.87;2.67;;;;;;;;;;10241960;28;20068;-67
2021/05/15 14:53:30;;;;;;;4.88;2.67;;;;;;;;;;10247433;28;20569;-67
2021/05/15 14:58:27;;;;;;;6.60;3.92;;;;;;;;;;10237218;28;20108;-69
2021/05/15 15:03:25;;;;;;;10.48;3.95;;;;;;;;;;10240481;28;20044;-69
2021/05/15 15:08:22;;;;;;;15.97;7.70;;;;;;;;;;10248896;28;20318;-67
2021/05/15 15:13:20;;;;;;;8.88;4.00;;;;;;;;;;10249838;28;20046;-66
2021/05/15 15:18:17;;;;;;;8.20;4.67;;;;;;;;;;10252894;28;20038;-67
2021/05/15 15:23:17;;;;;;;6.00;4.27;;;;;;;;;;10241266;28;20050;-68
2021/05/15 15:28:15;;;;;;;5.90;3.38;;;;;;;;;;10250636;28;20483;-67
2021/05/15 15:33:14;;;;;;;5.25;3.67;;;;;;;;;;10232267;28;20120;-66
2021/05/15 15:38:12;;;;;;;3.92;2.85;;;;;;;;;;10252348;28;20518;-66
2021/05/15 15:43:09;;;;;;;9.40;4.68;;;;;;;;;;10241906;28;20026;-66
2021/05/15 15:48:07;;;;;;;5.50;3.70;;;;;;;;;;10250276;28;20034;-66
2021/05/15 15:53:04;;;;;;;6.77;4.50;;;;;;;;;;10223959;28;20414;-66
2021/05/15 15:58:02;;;;;;;7.30;4.60;;;;;;;;;;10236153;28;20577;-67
2021/05/15 16:02:59;;;;;;;9.13;4.93;;;;;;;;;;10256213;28;20464;-67
2021/05/15 16:08:02;;;;;;;12.13;5.03;;;;;;;;;;10246662;28;20487;-68
2021/05/15 16:13:01;;;;;;;6.25;4.40;;;;;;;;;;10238154;28;20124;-67
2021/05/15 16:17:59;;;;;;;11.20;5.32;;;;;;;;;;10252280;28;20046;-68
2021/05/15 16:22:56;;;;;;;9.30;4.97;;;;;;;;;;10232050;28;20041;-67
2021/05/15 16:27:54;;;;;;;9.52;4.60;;;;;;;;;;10225892;28;20037;-67
2021/05/15 16:32:51;;;;;;;14.43;4.83;;;;;;;;;;10237057;28;20471;-67
2021/05/15 16:37:49;;;;;;;7.80;4.70;;;;;;;;;;10229290;28;20034;-67
2021/05/15 16:42:46;;;;;;;8.13;4.37;;;;;;;;;;10239534;28;20143;-67
2021/05/15 16:47:43;;;;;;;8.30;4.70;;;;;;;;;;10260677;28;20107;-67
2021/05/15 16:52:41;;;;;;;7.50;3.60;;;;;;;;;;10253125;28;20110;-67
2021/05/15 16:57:39;;;;;;;9.75;4.65;;;;;;;;;;10266971;28;20511;-67
2021/05/15 17:02:37;;;;;;;7.60;3.83;;;;;;;;;;10260684;28;20048;-67
2021/05/15 17:07:34;;;;;;;8.00;3.97;;;;;;;;;;10261080;28;20132;-66
2021/05/15 17:12:31;;;;;;;6.47;3.47;;;;;;;;;;10240942;28;20407;-65
2021/05/15 17:17:29;;;;;;;7.07;4.00;;;;;;;;;;10242644;28;20336;-66
2021/05/15 17:22:26;;;;;;;7.27;3.90;;;;;;;;;;10250076;28;20042;-66
2021/05/15 17:27:24;;;;;;;5.40;3.03;;;;;;;;;;10246865;28;20030;-66
2021/05/15 17:32:21;;;;;;;7.27;3.07;;;;;;;;;;10258231;28;20411;-69
2021/05/15 17:37:18;;;;;;;6.87;3.63;;;;;;;;;;10255073;28;20038;-67
2021/05/15 17:42:16;;;;;;;5.60;3.50;;;;;;;;;;10251124;28;20038;-68
2021/05/15 17:47:14;;;;;;;4.87;3.30;;;;;;;;;;10253385;28;20438;-68
2021/05/15 17:52:11;;;;;;;6.53;3.50;;;;;;;;;;10243162;28;20721;-65
2021/05/15 17:57:09;;;;;;;4.60;2.63;;;;;;;;;;10230914;28;20034;-67
2021/05/15 18:02:08;;;;;;;3.63;2.60;;;;;;;;;;10222451;28;20029;-67
2021/05/15 18:07:06;;;;;;;5.68;2.80;;;;;;;;;;10236487;28;20083;-66
2021/05/15 18:12:03;;;;;;;4.57;2.53;;;;;;;;;;10239439;28;20263;-67
2021/05/15 18:17:01;;;;;;;4.63;3.00;;;;;;;;;;10221300;28;20298;-67
2021/05/15 18:21:58;;;;;;;3.27;2.33;;;;;;;;;;10210765;28;20316;-66
2021/05/15 18:26:56;;;;;;;3.90;2.47;;;;;;;;;;10239683;28;20038;-65
2021/05/15 18:31:53;;;;;;;2.92;2.28;;;;;;;;;;10262524;28;20037;-67
2021/05/15 18:36:51;;;;;;;4.93;2.53;;;;;;;;;;10252233;28;20109;-66
2021/05/15 18:41:50;;;;;;;4.07;2.13;;;;;;;;;;10253391;28;20034;-67
2021/05/15 18:46:48;;;;;;;4.47;2.35;;;;;;;;;;10246034;28;20045;-65
2021/05/15 18:51:45;;;;;;;2.10;1.90;;;;;;;;;;10235862;28;20045;-67
2021/05/15 18:56:45;;;;;;;4.13;2.47;;;;;;;;;;10235196;28;20495;-66
2021/05/15 19:01:42;;;;;;;3.72;2.47;;;;;;;;;;10248331;28;20041;-66
2021/05/15 19:06:40;;;;;;;4.07;2.37;;;;;;;;;;10252620;28;20046;-66
2021/05/15 19:11:37;;;;;;;3.23;2.40;;;;;;;;;;10250783;28;20065;-66
2021/05/15 19:16:35;;;;;;;2.87;2.00;;;;;;;;;;10238661;28;21423;-67
2021/05/15 19:21:32;;;;;;;4.07;2.37;;;;;;;;;;10244353;28;20527;-66
2021/05/15 19:26:33;;;;;;;5.13;2.43;;;;;;;;;;10235262;28;20030;-66
2021/05/15 19:31:30;;;;;;;2.72;1.98;;;;;;;;;;10239911;28;20038;-67
2021/05/15 19:36:29;;;;;;;3.30;2.00;;;;;;;;;;10230053;28;20202;-66
2021/05/15 19:41:26;;;;;;;2.83;2.05;;;;;;;;;;10234142;28;20042;-67
2021/05/15 19:46:24;;;;;;;2.80;2.23;;;;;;;;;;10219210;28;20407;-67
2021/05/15 19:51:21;;;;;;;4.60;1.87;;;;;;;;;;10221145;28;20026;-66
2021/05/15 19:56:31;;;;;;;2.00;1.90;;;;;;;;;;10224780;28;20030;-66
2021/05/15 20:01:29;;;;;;;2.50;2.13;;;;;;;;;;10232240;28;20045;-67
2021/05/15 20:06:26;;;;;;;6.07;2.10;;;;;;;;;;10243917;28;20041;-68
2021/05/15 20:11:24;;;;;;;2.73;2.00;;;;;;;;;;10245352;28;20041;-67
2021/05/15 20:16:21;;;;;;;2.27;2.07;;;;;;;;;;10244066;28;20117;-68
2021/05/15 20:21:19;;;;;;;3.37;2.17;;;;;;;;;;10240731;28;20044;-66
2021/05/15 20:26:16;;;;;;;2.93;2.30;;;;;;;;;;10232978;28;20743;-66
2021/05/15 20:31:13;;;;;;;2.40;2.20;;;;;;;;;;10233463;28;20025;-67
2021/05/15 20:36:11;;;;;;;2.00;1.80;;;;;;;;;;10234259;28;20037;-66
2021/05/15 20:41:09;;;;;;;2.03;1.70;;;;;;;;;;10247630;28;20073;-67
2021/05/15 20:46:06;;;;;;;3.17;1.83;;;;;;;;;;10230667;28;20091;-66
2021/05/15 20:51:08;;;;;;;4.03;1.93;;;;;;;;;;10248614;28;20064;-65
2021/05/15 20:56:06;;;;;;;9.38;5.95;;;;;;;;;;10247009;28;20042;-66
2021/05/15 21:01:04;;;;;;;7.72;6.13;;;;;;;;;;10254376;28;20042;-66
2021/05/15 21:06:01;;;;;;;8.07;6.80;;;;;;;;;;10260187;28;20529;-67
2021/05/15 21:10:59;;;;;;;10.13;6.80;;;;;;;;;;10231648;28;20438;-66
2021/05/15 21:15:56;;;;;;;36.30;6.50;;;;;;;;;;10253728;28;20038;-67
2021/05/15 21:20:54;;;;;;;7.20;5.17;;;;;;;;;;10254740;28;20045;-66
2021/05/15 21:25:51;;;;;;;5.03;4.43;;;;;;;;;;10242970;28;20058;-66
2021/05/15 21:30:49;;;;;;;4.60;3.90;;;;;;;;;;10248866;28;20513;-65
2021/05/15 21:35:46;;;;;;;4.90;4.27;;;;;;;;;;10253010;28;20447;-64
2021/05/15 21:40:44;;;;;;;10.43;4.63;;;;;;;;;;10255369;28;20113;-68
2021/05/15 21:45:41;;;;;;;17.60;3.73;;;;;;;;;;10255555;28;20022;-66
2021/05/15 21:50:39;;;;;;;41.07;3.30;;;;;;;;;;10254399;28;20069;-66
2021/05/15 21:55:38;;;;;;;0.50;0.50;;;;;;;;;;10237975;28;20041;-67
2021/05/15 22:00:40;;;;;;;0.73;0.52;;;;;;;;;;10244021;28;20121;-66
2021/05/15 22:05:42;;;;;;;2.60;1.20;;;;;;;;;;10255308;28;20101;-66
2021/05/15 22:10:40;;;;;;;1.58;1.27;;;;;;;;;;10241266;28;20042;-65
2021/05/15 22:15:38;;;;;;;1.90;1.00;;;;;;;;;;10251694;28;20041;-67
2021/05/15 22:20:45;;;;;;;1.10;0.93;;;;;;;;;;10249564;28;20041;-64
2021/05/15 22:25:43;;;;;;;2.00;1.23;;;;;;;;;;10251489;28;20026;-65
2021/05/15 22:30:40;;;;;;;2.30;1.60;;;;;;;;;;10233924;28;20294;-65
2021/05/15 22:35:38;;;;;;;1.20;1.00;;;;;;;;;;10253767;28;20061;-66
2021/05/15 22:40:36;;;;;;;0.47;0.47;;;;;;;;;;10243768;28;20027;-67
2021/05/15 22:45:34;;;;;;;1.90;1.03;;;;;;;;;;10229897;28;20041;-66
2021/05/15 22:50:32;;;;;;;;;;;;;;;;;;10227420;28;20030;-65
2021/05/15 22:55:29;;;;;;;1.30;1.20;;;;;;;;;;10205949;28;19928;-65
2021/05/15 23:00:28;;;;;;;0.90;0.83;;;;;;;;;;10247294;28;20072;-63
2021/05/15 23:05:25;;;;;;;;;;;;;;;;;;10251794;23;20720;-65
2021/05/15 23:10:23;;;;;;;0.40;0.40;;;;;;;;;;10299838;28;19923;-63
2021/05/15 23:15:20;;;;;;;0.70;0.70;;;;;;;;;;10306135;28;20568;-63
2021/05/15 23:20:19;;;;;;;1.33;1.00;;;;;;;;;;10262814;28;20054;-65
2021/05/15 23:25:16;;;;;;;1.98;1.17;;;;;;;;;;10290667;28;20041;-65
2021/05/15 23:30:21;;;;;;;0.40;0.40;;;;;;;;;;10288483;28;20541;-61
2021/05/15 23:35:19;;;;;;;0.70;0.70;;;;;;;;;;10301392;28;20521;-65
2021/05/15 23:40:22;;;;;;;0.30;0.25;;;;;;;;;;10270275;28;20083;-66
2021/05/15 23:45:21;;;;;;;0.52;0.40;;;;;;;;;;10301264;28;20400;-66
2021/05/15 23:50:20;;;;;;;0.80;0.80;;;;;;;;;;10305163;28;20037;-66
2021/05/15 23:55:18;;;;;;;0.75;0.45;;;;;;;;;;10305377;28;20368;-66
